Time;durP1;ratioP1;P1;durP2;ratioP2;P2;SDS_P1;SDS_P2;PMS_P1;PMS_P2;Temp;Humidity;BMP_temperature;BMP_pressure;BME280_temperature;BME280_humidity;BME280_pressure;Samples;Min_cycle;Max_cycle;Signal;HPM_P1;HPM_P2
2022/09/29 00:04:37;;;;;;;16.23;7.82;;;9.20;99.90;;;;;;21141024;28;20036;-51
2022/09/29 00:14:39;;;;;;;13.02;6.50;;;9.30;99.90;;;;;;21156672;28;20061;-53
2022/09/29 00:24:42;;;;;;;8.98;6.30;;;9.50;99.90;;;;;;21157041;28;20036;-47
2022/09/29 00:34:49;;;;;;;10.88;5.40;;;9.50;99.90;;;;;;21139202;28;20056;-52
2022/09/29 00:45:10;;;;;;;10.18;5.35;;;9.60;99.90;;;;;;21071271;28;20066;-49
2022/09/29 00:55:38;;;;;;;14.50;7.70;;;9.70;99.90;;;;;;21070144;28;20081;-49
2022/09/29 01:05:52;;;;;;;11.32;7.13;;;9.50;99.90;;;;;;21069556;28;20032;-49
2022/09/29 01:15:54;;;;;;;15.20;9.13;;;9.10;99.90;;;;;;21069152;28;20443;-52
2022/09/29 01:26:36;;;;;;;13.90;9.15;;;8.90;99.90;;;;;;21085375;28;20062;-51
2022/09/29 01:37:11;;;;;;;18.40;9.25;;;8.70;99.90;;;;;;21066846;28;20101;-53
2022/09/29 01:47:41;;;;;;;18.27;11.05;;;8.50;99.90;;;;;;20647451;28;20500;-52
2022/09/29 01:58:08;;;;;;;20.10;11.10;;;8.40;99.90;;;;;;20566348;28;20046;-50
2022/09/29 02:08:19;;;;;;;23.42;12.75;;;8.20;99.90;;;;;;20612177;28;20042;-52
2022/09/29 02:18:34;;;;;;;25.92;13.05;;;8.10;99.90;;;;;;20762668;28;20044;-51
2022/09/29 02:28:38;;;;;;;29.90;13.90;;;8.20;99.90;;;;;;21062774;28;20074;-51
2022/09/29 02:38:54;;;;;;;25.02;14.10;;;8.40;99.90;;;;;;21061801;28;20101;-50
2022/09/29 02:49:27;;;;;;;27.13;15.93;;;8.70;99.90;;;;;;21061327;28;20057;-53
2022/09/29 02:59:34;;;;;;;16.88;12.45;;;8.80;99.90;;;;;;21060945;28;20040;-52
2022/09/29 03:09:38;;;;;;;36.13;16.23;;;9.00;99.90;;;;;;21059880;28;20089;-52
2022/09/29 03:19:41;;;;;;;20.92;14.52;;;9.00;99.90;;;;;;21059212;28;20031;-51
2022/09/29 03:29:44;;;;;;;19.65;15.00;;;9.10;99.90;;;;;;21059031;28;20393;-50
2022/09/29 03:39:46;;;;;;;27.50;16.92;;;9.10;99.90;;;;;;21117017;28;20096;-61
2022/09/29 03:49:49;;;;;;;19.70;14.50;;;9.10;99.90;;;;;;21140425;28;20044;-60
2022/09/29 03:59:52;;;;;;;21.17;13.77;;;9.10;99.90;;;;;;21141422;28;20028;-52
2022/09/29 04:09:54;;;;;;;16.25;11.73;;;9.00;99.90;;;;;;21140655;28;20563;-52
2022/09/29 04:19:57;;;;;;;22.30;14.65;;;8.50;99.90;;;;;;21140027;28;20036;-52
2022/09/29 04:30:00;;;;;;;24.27;16.48;;;8.10;99.90;;;;;;21140385;28;20039;-51
2022/09/29 04:40:03;;;;;;;28.15;18.25;;;8.00;99.90;;;;;;21122797;28;20404;-49
2022/09/29 04:50:08;;;;;;;28.00;17.38;;;8.30;99.90;;;;;;21138984;28;20499;-53
2022/09/29 05:00:12;;;;;;;43.53;23.58;;;8.20;99.90;;;;;;21151087;28;20039;-47
2022/09/29 05:10:15;;;;;;;42.70;21.38;;;8.10;99.90;;;;;;21153692;28;20085;-52
2022/09/29 05:20:17;;;;;;;30.17;17.27;;;8.30;99.90;;;;;;21152689;28;20036;-60
2022/09/29 05:30:20;;;;;;;36.42;20.80;;;8.30;99.90;;;;;;21152181;28;20057;-49
2022/09/29 05:40:23;;;;;;;36.67;21.15;;;8.20;99.90;;;;;;21134276;28;20047;-52
2022/09/29 05:50:25;;;;;;;34.17;18.70;;;8.40;99.90;;;;;;21150033;28;20120;-50
2022/09/29 06:00:30;;;;;;;28.42;18.17;;;8.70;99.90;;;;;;21149899;28;20028;-50
2022/09/29 06:10:33;;;;;;;36.17;19.83;;;9.10;99.90;;;;;;21148603;28;20027;-50
2022/09/29 06:20:37;;;;;;;32.05;17.17;;;9.50;99.90;;;;;;21147657;28;20043;-52
2022/09/29 06:30:41;;;;;;;24.30;15.82;;;9.60;99.90;;;;;;21147413;28;20061;-60
2022/09/29 06:40:43;;;;;;;27.63;15.65;;;9.70;99.90;;;;;;21146042;28;20043;-52
2022/09/29 06:50:47;;;;;;;19.90;13.23;;;10.00;99.90;;;;;;21144844;28;20494;-50
2022/09/29 07:00:49;;;;;;;23.73;14.40;;;10.20;99.90;;;;;;21144923;28;20039;-50
2022/09/29 07:10:52;;;;;;;18.45;12.43;;;10.80;99.90;;;;;;21143555;28;20035;-47
2022/09/29 07:20:55;;;;;;;15.88;11.38;;;11.10;99.90;;;;;;21142701;28;20097;-52
2022/09/29 07:31:07;;;;;;;17.27;10.50;;;10.80;99.90;;;;;;21142755;28;20081;-50
2022/09/29 07:41:10;;;;;;;162.57;14.77;;;10.40;99.90;;;;;;21158104;28;20077;-50
2022/09/29 07:51:18;;;;;;;11.65;7.78;;;10.10;99.90;;;;;;21141305;28;20055;-60
2022/09/29 08:01:21;;;;;;;16.80;10.77;;;10.20;99.90;;;;;;21126800;28;20028;-49
2022/09/29 08:11:24;;;;;;;14.50;8.32;;;10.90;99.90;;;;;;21103872;28;20100;-47
2022/09/29 08:21:28;;;;;;;21.25;9.73;;;11.40;99.90;;;;;;21156820;28;20036;-57
2022/09/29 08:31:31;;;;;;;7.05;3.85;;;10.70;99.90;;;;;;21147463;28;20035;-57
2022/09/29 08:41:52;;;;;;;11.10;5.35;;;9.10;99.90;;;;;;21172111;28;20036;-56
2022/09/29 08:52:02;;;;;;;4.27;2.60;;;8.30;99.90;;;;;;21154328;28;20039;-51
2022/09/29 09:02:23;;;;;;;4.65;2.97;;;8.30;99.90;;;;;;21154227;28;20043;-54
2022/09/29 09:12:43;;;;;;;3.72;1.90;;;8.80;99.90;;;;;;21137992;28;20043;-50
2022/09/29 09:22:56;;;;;;;3.85;2.35;;;9.30;99.90;;;;;;21152630;28;20081;-52
2022/09/29 09:33:04;;;;;;;3.88;1.90;;;9.50;99.90;;;;;;21151282;28;20028;-52
2022/09/29 09:43:19;;;;;;;3.78;0.80;;;9.80;99.90;;;;;;21150320;28;20032;-60
2022/09/29 09:53:30;;;;;;;3.55;2.10;;;10.10;99.90;;;;;;21149554;28;20027;-51
2022/09/29 10:03:35;;;;;;;7.15;2.90;;;10.40;99.90;;;;;;21148552;28;20032;-48
2022/09/29 10:13:38;;;;;;;4.15;2.10;;;10.80;99.90;;;;;;21148334;28;20036;-52
2022/09/29 10:23:50;;;;;;;4.32;2.13;;;11.50;99.90;;;;;;21147234;28;20039;-51
2022/09/29 10:34:14;;;;;;;3.47;2.10;;;11.90;99.90;;;;;;21146363;28;20097;-50
2022/09/29 10:44:20;;;;;;;4.18;2.40;;;11.90;99.90;;;;;;21145170;28;20081;-51
2022/09/29 10:54:25;;;;;;;6.25;3.25;;;10.90;99.90;;;;;;21143754;28;20061;-52
2022/09/29 11:04:38;;;;;;;13.38;4.55;;;10.40;99.90;;;;;;21144118;28;20047;-52
2022/09/29 11:14:42;;;;;;;10.05;5.38;;;10.40;99.90;;;;;;21143558;28;20396;-50
2022/09/29 11:25:21;;;;;;;240.95;14.60;;;10.30;99.90;;;;;;21142981;28;20097;-50
2022/09/29 11:35:35;;;;;;;48.60;7.22;;;10.30;99.90;;;;;;21142617;28;20051;-49
2022/09/29 11:45:47;;;;;;;13.32;5.97;;;10.60;99.90;;;;;;21142245;28;20031;-49
2022/09/29 11:56:09;;;;;;;8.65;5.45;;;10.70;99.90;;;;;;21141540;28;20073;-50
2022/09/29 12:06:32;;;;;;;14.20;5.90;;;11.00;99.90;;;;;;21149439;28;20484;-47
2022/09/29 12:16:38;;;;;;;9.25;5.18;;;11.20;99.90;;;;;;21159009;28;20368;-48
2022/09/29 12:26:43;;;;;;;11.10;4.53;;;11.30;99.90;;;;;;21157201;28;20027;-51
2022/09/29 12:36:52;;;;;;;40.88;8.23;;;11.40;99.90;;;;;;21156072;28;20048;-49
2022/09/29 12:47:08;;;;;;;41.07;9.63;;;11.00;99.90;;;;;;21155870;28;20528;-59
2022/09/29 12:57:15;;;;;;;23.80;11.43;;;10.70;99.90;;;;;;21154736;28;20362;-52
2022/09/29 13:07:27;;;;;;;20.65;11.07;;;10.60;99.90;;;;;;21154201;28;20032;-51
2022/09/29 13:17:48;;;;;;;27.25;11.90;;;10.30;99.90;;;;;;21152111;28;20027;-52
2022/09/29 13:27:55;;;;;;;74.50;9.18;;;10.30;99.90;;;;;;21152718;28;20434;-48
2022/09/29 13:38:10;;;;;;;34.08;8.93;;;10.20;99.90;;;;;;21107355;28;20105;-55
2022/09/29 13:48:17;;;;;;;7.80;4.53;;;10.20;99.90;;;;;;21066659;28;20035;-54
2022/09/29 13:58:28;;;;;;;4.07;1.65;;;10.00;99.90;;;;;;21099924;28;20032;-55
2022/09/29 14:08:38;;;;;;;2.38;1.42;;;9.60;99.90;;;;;;21064910;28;20032;-54
2022/09/29 14:18:46;;;;;;;0.67;0.20;;;9.10;99.90;;;;;;21064041;28;20040;-51
2022/09/29 14:28:52;;;;;;;8.23;5.43;;;8.90;99.90;;;;;;21063823;28;20381;-52
2022/09/29 14:38:56;;;;;;;8.98;5.47;;;9.10;99.90;;;;;;21062307;28;20485;-51
2022/09/29 15:00:11;;;;;;;7.27;1.97;;;8.90;99.90;;;;;;20804675;28;20096;-54
2022/09/29 15:10:46;;;;;;;5.05;2.40;;;8.80;99.90;;;;;;20803794;28;20045;-59
2022/09/29 15:21:08;;;;;;;7.60;6.13;;;8.70;99.90;;;;;;20801208;28;20037;-55
2022/09/29 15:31:17;;;;;;;1.77;0.10;;;8.60;99.90;;;;;;20815191;28;20037;-58
2022/09/29 15:41:22;;;;;;;0.00;0.00;;;7.30;99.90;;;;;;20948105;28;20054;-57
2022/09/29 15:51:25;;;;;;;0.45;0.10;;;6.60;99.90;;;;;;20835171;28;20107;-56
2022/09/29 16:01:27;;;;;;;1.38;0.10;;;7.10;99.90;;;;;;20918585;28;20105;-54
2022/09/29 16:11:35;;;;;;;1.50;0.57;;;7.50;99.90;;;;;;21056695;28;20044;-51
2022/09/29 16:21:38;;;;;;;0.95;0.60;;;7.90;99.90;;;;;;21056932;28;20070;-52
2022/09/29 16:31:43;;;;;;;2.97;1.00;;;8.00;99.90;;;;;;21056294;28;20066;-49
2022/09/29 16:41:54;;;;;;;1.20;0.80;;;8.00;99.90;;;;;;21142828;28;20492;-54
2022/09/29 16:52:24;;;;;;;2.75;0.75;;;8.00;99.90;;;;;;21147558;28;20035;-51
2022/09/29 17:02:27;;;;;;;4.97;1.00;;;8.00;99.90;;;;;;21155840;28;20041;-54
2022/09/29 17:12:30;;;;;;;7.53;1.80;;;8.10;99.90;;;;;;21153944;28;20430;-52
2022/09/29 17:22:35;;;;;;;4.18;1.60;;;8.30;99.90;;;;;;21152823;28;20104;-54
2022/09/29 17:32:41;;;;;;;5.60;1.58;;;8.40;99.90;;;;;;21152086;28;20069;-52
2022/09/29 17:42:46;;;;;;;3.80;1.40;;;8.40;99.90;;;;;;21151298;28;20073;-55
2022/09/29 17:53:23;;;;;;;8.40;1.63;;;8.40;99.90;;;;;;21150503;28;20051;-51
2022/09/29 18:03:33;;;;;;;6.50;2.33;;;8.50;99.90;;;;;;21142773;28;20039;-57
2022/09/29 18:13:36;;;;;;;;;;;8.50;99.90;;;;;;21149399;28;20035;-57
2022/09/29 18:23:38;;;;;;;5.43;1.63;;;8.50;99.90;;;;;;21148636;28;19957;-53
2022/09/29 18:33:41;;;;;;;4.78;1.30;;;8.50;99.90;;;;;;21147111;28;20047;-55
2022/09/29 18:43:43;;;;;;;5.22;1.40;;;8.40;99.90;;;;;;21147996;28;20036;-56
2022/09/29 18:53:46;;;;;;;2.55;1.10;;;8.50;99.90;;;;;;21145630;28;20092;-53
2022/09/29 19:03:49;;;;;;;1.70;0.50;;;8.40;99.90;;;;;;21144461;28;20089;-54
2022/09/29 19:13:55;;;;;;;2.55;0.60;;;8.20;99.90;;;;;;21143462;28;20036;-56
2022/09/29 19:23:57;;;;;;;1.98;0.45;;;8.10;99.90;;;;;;21143308;28;20032;-55
2022/09/29 19:34:00;;;;;;;2.60;0.68;;;8.00;99.90;;;;;;21142800;28;20120;-54
2022/09/29 19:44:02;;;;;;;3.78;1.10;;;8.00;99.90;;;;;;21142489;28;20035;-55
2022/09/29 19:54:09;;;;;;;4.47;1.80;;;8.10;99.90;;;;;;21141833;28;20069;-59
2022/09/29 20:04:13;;;;;;;4.50;1.15;;;8.20;99.90;;;;;;21141271;28;20101;-56
2022/09/29 20:14:20;;;;;;;3.75;1.70;;;8.20;99.90;;;;;;21140927;28;20040;-53
2022/09/29 20:24:23;;;;;;;5.53;2.00;;;8.10;99.90;;;;;;21126869;28;20031;-61
2022/09/29 20:34:26;;;;;;;5.53;2.00;;;8.10;99.90;;;;;;21156779;28;20040;-54
2022/09/29 20:44:29;;;;;;;6.38;3.65;;;8.20;99.90;;;;;;21156100;28;20472;-54
2022/09/29 20:54:31;;;;;;;13.10;6.30;;;8.20;99.90;;;;;;21155499;28;20435;-53
2022/09/29 21:04:35;;;;;;;11.20;4.93;;;8.30;99.90;;;;;;21154194;28;20036;-53
2022/09/29 21:14:38;;;;;;;10.63;4.93;;;8.40;99.90;;;;;;21137235;28;20096;-53
2022/09/29 21:24:40;;;;;;;0.68;0.22;;;8.40;99.90;;;;;;21152810;28;20031;-56
2022/09/29 21:34:43;;;;;;;2.60;0.05;;;8.40;99.90;;;;;;21150892;28;20044;-56
2022/09/29 21:44:46;;;;;;;0.00;0.00;;;7.30;99.90;;;;;;21134951;28;20036;-52
2022/09/29 21:54:48;;;;;;;0.10;0.00;;;7.00;99.90;;;;;;21150881;28;20039;-59
2022/09/29 22:04:51;;;;;;;0.85;0.00;;;7.10;99.90;;;;;;21151102;28;20096;-52
2022/09/29 22:14:54;;;;;;;0.03;0.00;;;7.00;99.90;;;;;;21132530;28;20040;-51
2022/09/29 22:25:06;;;;;;;0.00;0.00;;;7.00;99.90;;;;;;21148044;28;20036;-51
2022/09/29 22:35:08;;;;;;;0.00;0.00;;;7.00;99.90;;;;;;21147088;28;20047;-60
2022/09/29 22:45:12;;;;;;;0.00;0.00;;;7.00;99.90;;;;;;20987370;28;20184;-60
2022/09/29 22:55:15;;;;;;;0.00;0.00;;;7.10;99.90;;;;;;21034638;28;20047;-50
2022/09/29 23:05:19;;;;;;;0.77;0.00;;;7.10;99.90;;;;;;21052593;28;20101;-55
2022/09/29 23:15:21;;;;;;;0.00;0.00;;;7.00;99.90;;;;;;21052199;28;20044;-52
2022/09/29 23:25:24;;;;;;;0.00;0.00;;;7.00;99.90;;;;;;21075729;28;20039;-51
2022/09/29 23:35:26;;;;;;;0.22;0.00;;;7.00;99.90;;;;;;21142606;28;20488;-52
2022/09/29 23:45:28;;;;;;;0.25;0.00;;;7.10;99.90;;;;;;21125570;28;20472;-54
2022/09/29 23:55:31;;;;;;;0.75;0.00;;;6.90;99.90;;;;;;21139316;28;20035;-57
